Flight Track Log - Related Links

Times and Time Zones

All times are in EDT time to prevent confusion due to time zone crossing. See the UAL4695 flight status page for this flight to view local times or setup timezone preferences in your user account.

Time Position Orientation Groundspeed Altitude Reporting Facility
EDT Latitude Longitude Course Direction KTS MPH feet Rate Location/Type
Mon 07:04:32 PM 32.1817 -81.1497 31° Northeast 240 276 3,700  Level Jacksonville Center
Mon 07:05:32 PM 32.2447 -81.1878 333° Northwest 263 303 6,000 2,250 Climbing Jacksonville Center
Mon 07:06:32 PM 32.3075 -81.1867 North 258 297 8,200 2,400 Climbing Jacksonville Center
Mon 07:07:32 PM 32.3825 -81.1781 North 265 305 10,800 2,000 Climbing Jacksonville Center
Mon 07:08:32 PM 32.4597 -81.1764 North 266 306 12,200 1,500 Climbing Jacksonville Center
Mon 07:09:00 PM 33.0935 -80.4964 31° Northeast  Level Estimated
Mon 07:09:32 PM 32.5511 -81.1500 14° North 298 343 13,800  Level Jacksonville Center
Mon 07:10:32 PM 32.6278 -81.1067 25° Northeast 317 365 14,800 900 Climbing Jacksonville Center
Mon 07:11:32 PM 32.7128 -81.0556 27° Northeast 324 373 15,600 950 Climbing Jacksonville Center
Mon 07:12:32 PM 32.8081 -81.0017 25° Northeast 349 402 16,700 1,050 Climbing Jacksonville Center
Mon 07:13:32 PM 32.9031 -80.9478 25° Northeast 361 415 17,700 950 Climbing Jacksonville Center
Mon 07:14:32 PM 32.9983 -80.8914 26° Northeast 373 429 18,600 1,000 Climbing Jacksonville Center
Mon 07:15:32 PM 33.0975 -80.8344 26° Northeast 383 441 19,700 1,100 Climbing Jacksonville Center
Mon 07:16:32 PM 33.1989 -80.7775 25° Northeast 389 448 20,800 1,100 Climbing Jacksonville Center
Mon 07:17:32 PM 33.3106 -80.7128 26° Northeast 394 453 21,900 1,100 Climbing Jacksonville Center
Mon 07:18:32 PM 33.4178 -80.6506 26° Northeast 406 467 23,000 1,041 Climbing Jacksonville Center
Mon 07:19:33 PM 33.5278 -80.6128 16° North 411 473 24,000 900 Climbing Jacksonville Center
Mon 07:20:32 PM 33.6406 -80.6197 357° North 399 459 24,800 857 Climbing Jacksonville Center
Mon 07:21:32 PM 33.7575 -80.6244 358° North 404 465 25,700 900 Climbing Jacksonville Center
Mon 07:22:32 PM 33.8669 -80.5614 26° Northeast 409 471 26,600 850 Climbing Jacksonville Center
Mon 07:23:32 PM 33.9700 -80.4836 32° Northeast 420 483 27,400 850 Climbing Jacksonville Center
Mon 07:24:32 PM 34.0769 -80.4106 29° Northeast 425 489 28,300 850 Climbing Jacksonville Center
Mon 07:25:32 PM 34.1819 -80.3322 32° Northeast 432 497 29,100 850 Climbing Jacksonville Center
Mon 07:26:32 PM 34.2867 -80.2536 32° Northeast 442 509 30,000 891 Climbing Jacksonville Center
Mon 07:28:54 PM 34.5411 -80.0622 32° Northeast 459 528 32,100 857 Climbing Washington Center
Mon 07:29:55 PM 34.6461 -79.9844 31° Northeast 468 539 32,900 843 Climbing Washington Center
Mon 07:30:55 PM 34.7597 -79.9047 30° Northeast 474 545 33,800 900 Climbing Washington Center
Mon 07:31:55 PM 34.8797 -79.8125 32° Northeast 474 545 34,700 600 Climbing Washington Center
Mon 07:32:55 PM 34.9953 -79.7272 31° Northeast 474 545 35,000 150 Climbing Washington Center
Mon 07:33:55 PM 35.1131 -79.6392 31° Northeast 486 559 35,000  Level Washington Center
Mon 07:34:54 PM 35.2350 -79.5514 30° Northeast 492 566 35,000  Level Washington Center
Mon 07:35:54 PM 35.3569 -79.4631 31° Northeast 497 572 35,000  Level Washington Center
Mon 07:36:55 PM 35.4658 -79.3817 31° Northeast 503 579 35,000  Level Washington Center
Mon 07:37:54 PM 35.6006 -79.2833 31° Northeast 503 579 35,000  Level Washington Center
Mon 07:38:54 PM 35.7242 -79.1944 30° Northeast 503 579 35,000  Level Washington Center
Mon 07:39:54 PM 35.8458 -79.1050 31° Northeast 503 579 35,000  Level Washington Center
Mon 07:40:54 PM 35.9717 -79.0131 31° Northeast 503 579 35,000  Level Washington Center
Mon 07:41:54 PM 36.0908 -78.9258 31° Northeast 508 585 35,000  Level Washington Center
Mon 07:42:54 PM 36.2144 -78.8333 31° Northeast 508 585 35,000  Level Washington Center
Mon 07:43:54 PM 36.3400 -78.7406 31° Northeast 508 585 35,000  Level Washington Center
Mon 07:44:55 PM 36.4633 -78.6472 31° Northeast 513 590 35,000  Level Washington Center
Mon 07:45:54 PM 36.5869 -78.5511 32° Northeast 513 590 35,000  Level Washington Center
Mon 07:46:55 PM 36.6975 -78.4672 31° Northeast 513 590 35,000  Level Washington Center
Mon 07:47:54 PM 36.8228 -78.3733 31° Northeast 518 596 35,000  Level Washington Center
Mon 07:48:55 PM 36.9608 -78.2639 32° Northeast 531 611 35,000  Level Washington Center
Mon 07:49:54 PM 37.0881 -78.1694 31° Northeast 531 611 35,000  Level Washington Center
Mon 07:50:54 PM 37.2006 -78.0819 32° Northeast 531 611 35,000  Level Washington Center
Mon 07:51:54 PM 37.3275 -77.9842 31° Northeast 531 611 35,000  Level Washington Center
Mon 07:52:55 PM 37.4547 -77.8861 31° Northeast 531 611 35,000  Level Washington Center
Mon 07:53:54 PM 37.5797 -77.7825 33° Northeast 531 611 35,000  Level Washington Center
Mon 07:54:54 PM 37.7006 -77.6731 36° Northeast 531 611 35,000  Level Washington Center
Mon 07:55:55 PM 37.8214 -77.5608 36° Northeast 542 624 35,000 -50 Level Washington Center
Mon 07:56:54 PM 37.9378 -77.4586 35° Northeast 528 608 34,900 -50 Descending Washington Center
Mon 07:57:54 PM 38.0456 -77.3611 35° Northeast 501 577 34,900  Level Washington Center
Mon 07:58:56 PM 38.1533 -77.2606 36° Northeast 480 552 34,900 -135 Level Washington Center
Mon 08:00:07 PM 38.2864 -77.1392 36° Northeast 480 552 34,600 -554 Descending Washington Center
Mon 08:01:06 PM 38.3917 -77.0381 37° Northeast 480 552 33,700 -908 Descending Washington Center
Mon 08:02:06 PM 38.4994 -76.9367 36° Northeast 480 552 32,800 -950 Descending Washington Center
Mon 08:03:06 PM 38.6044 -76.8431 35° Northeast 480 552 31,800 -900 Descending Washington Center
Mon 08:04:06 PM 38.7014 -76.7489 37° Northeast 461 531 31,000 -397 Descending Washington Center
Mon 08:05:07 PM 38.7900 -76.6489 41° Northeast 435 501 31,000  Level Washington Center
Mon 08:06:06 PM 38.8783 -76.5464 42° Northeast 421 484 31,000  Level Washington Center
Mon 08:07:06 PM 38.9708 -76.4381 42° Northeast 426 490 31,000  Level Washington Center
Mon 08:08:06 PM 39.0653 -76.3322 41° Northeast 431 496 31,000  Level Washington Center
Mon 08:09:06 PM 39.1672 -76.3572 349° North 380 437 31,000  Level Washington Center
Mon 08:10:06 PM 39.1750 -76.4672 275° West 234 269 31,000 -350 Level Washington Center
Mon 08:11:06 PM 39.1264 -76.5361 228° Southwest 177 204 30,300 -850 Descending Washington Center
Mon 08:12:06 PM 39.0717 -76.5942 219° Southwest 215 247 29,300 -1,000 Descending Washington Center
Mon 08:13:06 PM 39.0033 -76.5611 159° South 203 234 28,300 -950 Descending Washington Center
Mon 08:14:06 PM 39.0356 -76.4306 72° East 189 217 27,400 -650 Descending Washington Center
Mon 08:15:06 PM 39.1175 -76.3139 48° Northeast 295 339 27,000 -200 Descending Washington Center
Mon 08:16:06 PM 39.1953 -76.1942 50° Northeast 352 405 27,000  Level Washington Center
Mon 08:17:06 PM 39.2833 -76.0794 45° Northeast 411 473 27,000  Level Washington Center
Mon 08:18:07 PM 39.3733 -75.9728 42° Northeast 417 480 27,000 -793 Level Washington Center
Mon 08:19:07 PM 39.4611 -75.8658 43° Northeast 429 494 25,400 -2,067 Descending Washington Center
Mon 08:20:06 PM 39.5467 -75.7664 42° Northeast 424 488 22,900 -2,950 Descending Washington Center
Mon 08:21:07 PM 39.6239 -75.6750 42° Northeast 397 457 19,500 -2,900 Descending Washington Center
Mon 08:22:06 PM 39.7011 -75.5833 42° Northeast 385 443 17,100 -2,067 Descending Washington Center
Mon 08:23:06 PM 39.7781 -75.5239 31° Northeast 351 404 15,400 -1,736 Descending Washington Center
Mon 08:24:07 PM 39.8594 -75.4700 27° Northeast 325 374 13,600 -1,200 Descending Washington Center
Mon 08:25:06 PM 39.9072 -75.3750 57° Northeast 312 359 13,000 -350 Descending Washington Center
Mon 08:26:07 PM 39.9631 -75.2719 55° Northeast 303 349 12,900 -50 Descending Washington Center
Mon 08:27:07 PM 40.0253 -75.1906 45° Northeast 308 354 12,900 -450 Level Washington Center
Mon 08:28:07 PM 40.0897 -75.1114 43° Northeast 308 354 12,000 -1,200 Descending Washington Center
Mon 08:29:07 PM 40.1497 -75.0378 43° Northeast 308 354 10,500 -1,500 Descending Washington Center
Mon 08:30:07 PM 40.2078 -74.9639 44° Northeast 297 342 9,000 -1,311 Descending Washington Center
Mon 08:31:06 PM 40.2636 -74.8900 45° Northeast 292 336 7,900 -504 Descending Washington Center
Mon 08:32:06 PM 40.2256 -74.8253 128° Southeast 170 196 8,000 50 Climbing Washington Center
Mon 08:33:06 PM 40.1761 -74.8828 222° Southwest 103 119 8,000  Level Washington Center
Mon 08:34:06 PM 40.1408 -74.9483 235° Southwest 174 200 8,000  Level Washington Center
Mon 08:35:06 PM 40.1911 -74.9722 340° North 114 131 8,000  Level Washington Center
Mon 08:36:07 PM 40.2469 -74.9175 37° Northeast 129 148 8,000  Level Washington Center
Mon 08:37:06 PM 40.2694 -74.8519 66° East 168 193 8,000  Level Washington Center
Mon 08:38:06 PM 40.2175 -74.8553 183° South 87 100 8,000  Level Washington Center
Mon 08:39:06 PM 40.1761 -74.9128 227° Southwest 132 152 8,000  Level Washington Center
Mon 08:40:06 PM 40.1764 -74.9778 270° West 163 188 8,000 141 Level Washington Center
Mon 08:40:31 PM 40.2000 -74.9667 20° North 240 276 8,200 71 Climbing New York TRACON
Mon 08:41:31 PM 40.2500 -74.9000 45° Northeast 279 321 8,100 -50 Descending New York TRACON
Mon 08:42:31 PM 40.3167 -74.8333 37° Northeast 284 327 8,100 -150 Level New York TRACON
Mon 08:43:31 PM 40.3667 -74.7500 52° Northeast 251 289 7,800 -900 Descending New York TRACON
Mon 08:44:31 PM 40.4167 -74.7000 37° Northeast 241 277 6,300 -1,238 Descending New York TRACON
Mon 08:45:37 PM 40.4833 -74.6667 21° North 226 260 5,200 -600 Descending New York TRACON
Mon 08:46:31 PM 40.5167 -74.6333 37° Northeast 214 246 5,100 -150 Descending New York TRACON
Mon 08:47:37 PM 40.4667 -74.5833 143° Southeast 206 237 4,900 -524 Descending New York TRACON
Mon 08:48:37 PM 40.4333 -74.5500 143° Southeast 188 216 4,000 -947 Descending New York TRACON
Mon 08:49:31 PM 40.3833 -74.5333 166° South 176 203 3,100 -450 Descending New York TRACON
Mon 08:50:37 PM 40.3667 -74.4667 108° East 155 178 3,100  Level New York TRACON
Mon 08:51:37 PM 40.4000 -74.4167 49° Northeast 170 196 3,100  Level New York TRACON
Mon 08:52:43 PM 40.4167 -74.3667 66° East 170 196 3,100  Level New York TRACON

Login

Don't have an account? Register now (free) for customized features, flight alerts, and more!